Jacare, Brazil
Current Conditions -  °F | °C
As of 1:00 PM on Saturday 20 Dec 2014 (Local Time) from SBMK Reporting Station
Rain Showers Rain Showers  
Wind Chill: 79°   Ceiling: Unl
Heat Index: 81°   Visibility: 6mi
Dew Point: 68°   Wind: 8mph
Humidity: 69%   Direction: 10°N
Pressure: 30"   Gusts: NA
Location:  16.47°S, 41.99°W
Report Text: SBMK 201500Z 01007KT 340V050 9999 -RA VCSH SCT025 FEW035TCU BKN100 26/20 Q1016
Loading
Personal Weather Stations






























Interactive Weather Map New forecast layout! Learn more

10-Day Weather Forecast

Advertisements
Track Severe Weather on mobile